Gregorian/Lunar Calendar
Traditional Chinese Simplified Chinese
Climatological Information for Corn on Ear recorded at Hong Kong Observatory
dotted-line

Climatological Information for Corn on Ear recorded at
Hong Kong Observatory
(Period: 1947 - 2017)

Go To CORN FORMSGo To SUMMER SOLSTICE
Day
(yyyy-mm-dd)
Air Temperature Daily
Relative
Humidity
(%)
Daily
Total
Rainfall
(mm)
Daily
Total
Cloud Amount
(%)
Maximum
(Degree C)
Mean
(Degree C)
Minimum
(Degree C)
1947-06-06 28.8 25.4 24.3 93 70.8 ###
1948-06-06 28.2 26.0 24.4 77 - ###
1949-06-06 32.4 29.9 28.7 77 Trace 84
1950-06-06 30.5 26.6 23.4 86 Trace 69
1951-06-06 28.2 26.1 23.5 92 23.9 92
1952-06-06 32.7 29.7 26.9 80 0.4 86
1953-06-06 29.2 26.3 23.3 86 73.8 86
1954-06-06 28.2 26.3 24.6 94 31.4 93
1955-06-06 30.7 26.9 24.2 82 0.2 71
1956-06-06 30.0 27.7 25.0 86 7.9 82
1957-06-06 29.9 26.6 24.6 90 28.1 76
1958-06-06 32.3 27.9 24.9 84 Trace 64
1959-06-06 31.4 27.8 26.0 86 2.6 84
1960-06-06 28.3 26.0 24.6 85 7.4 91
1961-06-06 28.7 26.8 25.7 88 22.1 86
1962-06-06 29.8 27.1 25.5 87 25.1 89
1963-06-06 30.7 27.6 25.7 73 - 48
1964-06-06 28.7 25.0 21.7 63 - 26
1965-06-06 27.7 25.7 24.4 84 0.1 90
1966-06-06 25.2 23.3 22.4 87 6.8 96
1967-06-06 31.7 28.3 25.6 80 - 55
1968-06-05 29.3 26.1 23.9 75 - 58
1969-06-06 26.4 24.7 23.6 92 43.1 98
1970-06-06 29.5 28.4 27.3 84 6.6 88
1971-06-06 31.3 28.1 24.3 83 37.0 95
1972-06-05 26.9 25.4 24.2 94 57.5 98
1973-06-06 26.4 24.9 23.6 91 4.1 92
1974-06-06 28.0 25.1 22.7 70 0.1 84
1975-06-06 29.6 27.3 24.7 88 35.2 94
1976-06-05 28.0 26.5 25.2 89 13.9 89
1977-06-06 31.4 28.8 27.4 84 0.9 82
1978-06-06 29.5 27.3 24.4 89 6.5 96
1979-06-06 31.9 27.9 25.9 84 - 73
1980-06-05 28.1 25.5 23.9 88 8.1 80
1981-06-06 24.2 23.3 22.8 89 1.6 98
1982-06-06 25.5 24.0 22.8 85 4.9 92
1983-06-06 28.9 26.4 24.8 70 - 55
1984-06-05 28.3 25.2 23.8 89 21.9 72
1985-06-06 31.3 29.0 27.6 82 0.1 75
1986-06-06 28.6 26.2 23.8 90 175.1 94
1987-06-06 26.8 25.8 24.4 88 8.3 89
1988-06-05 31.6 27.7 24.8 67 - 3
1989-06-06 30.6 28.1 25.6 82 10.2 87
1990-06-06 28.1 26.2 25.4 93 11.2 88
1991-06-06 32.6 29.8 28.5 73 Trace 79
1992-06-05 31.7 28.3 26.1 82 - 53
1993-06-06 31.7 28.2 25.4 81 1.3 70
1994-06-06 30.8 28.4 27.3 71 Trace 70
1995-06-06 28.8 27.5 26.8 79 0.3 88
1996-06-05 31.5 29.2 27.5 74 - 42
1997-06-05 31.1 29.3 27.9 81 0.9 84
1998-06-06 24.6 23.5 22.5 84 4.8 94
1999-06-06 33.4 30.1 26.3 70 Trace 83
2000-06-05 34.2 30.4 28.3 74 - 18
2001-06-05 29.5 27.5 25.0 85 73.6 90
2002-06-06 29.9 27.8 25.9 83 3.3 75
2003-06-06 30.3 27.8 25.9 86 35.8 84
2004-06-05 28.4 27.1 26.4 80 Trace 84
2005-06-05 26.6 25.2 23.2 78 7.0 88
2006-06-06 30.7 28.9 27.6 81 0.8 87
2007-06-06 31.8 29.5 27.8 81 1.3 85
2008-06-05 28.3 25.8 24.4 86 0.1 82
2009-06-05 30.7 27.8 25.6 74 - 29
2010-06-06 28.2 25.2 23.5 80 - 59
2011-06-06 31.3 29.5 28.2 77 Trace 74
2012-06-05 31.6 28.2 25.8 79 - 52
2013-06-05 28.8 26.8 25.6 89 2.4 80
2014-06-06 30.1 28.0 26.6 81 17.2 88
2015-06-06 32.4 29.5 27.2 78 0.8 78
2016-06-05 30.4 26.9 25.0 86 7.6 87
2017-06-05 33.5 30.3 28.8 80 Trace 67
Maximum
34.2 30.4 28.8 94 175.1 98
Minimum
24.2 23.3 21.7 63 - 3
Normals
(1961-1990)
28.8 26.4 24.6 84 16.7 79
Normals
(1971-2000)
29.5 27.1 25.3 82 13.5 77
Normals
(1981-2010)
29.6 27.3 25.6 81 12.1 73
### means data not available
Column's Maximum in light red background colour
Column's Minimum in light blue background colour